sensor_id;sensor_type;location;lat;lon;timestamp;P1;durP1;ratioP1;P2;durP2;ratioP2
23046;SDS011;11691;51.462;6.902;2023-08-20T00:01:06;13.38;;;7.80;;
23046;SDS011;11691;51.462;6.902;2023-08-20T00:03:33;11.07;;;8.63;;
23046;SDS011;11691;51.462;6.902;2023-08-20T00:05:59;14.85;;;7.60;;
23046;SDS011;11691;51.462;6.902;2023-08-20T00:08:25;11.70;;;8.07;;
23046;SDS011;11691;51.462;6.902;2023-08-20T00:10:51;13.23;;;8.18;;
23046;SDS011;11691;51.462;6.902;2023-08-20T00:13:17;13.77;;;8.82;;
23046;SDS011;11691;51.462;6.902;2023-08-20T00:15:43;11.40;;;7.80;;
23046;SDS011;11691;51.462;6.902;2023-08-20T00:18:09;14.40;;;9.10;;
23046;SDS011;11691;51.462;6.902;2023-08-20T00:20:35;16.35;;;8.82;;
23046;SDS011;11691;51.462;6.902;2023-08-20T00:23:01;14.55;;;9.52;;
23046;SDS011;11691;51.462;6.902;2023-08-20T00:25:27;16.60;;;9.35;;
23046;SDS011;11691;51.462;6.902;2023-08-20T00:27:54;15.95;;;9.15;;
23046;SDS011;11691;51.462;6.902;2023-08-20T00:30:20;15.48;;;8.05;;
23046;SDS011;11691;51.462;6.902;2023-08-20T00:32:46;10.65;;;8.00;;
23046;SDS011;11691;51.462;6.902;2023-08-20T00:35:12;12.80;;;7.93;;
23046;SDS011;11691;51.462;6.902;2023-08-20T00:37:38;12.82;;;7.55;;
23046;SDS011;11691;51.462;6.902;2023-08-20T00:40:04;11.02;;;7.35;;
23046;SDS011;11691;51.462;6.902;2023-08-20T00:42:30;12.20;;;7.90;;
23046;SDS011;11691;51.462;6.902;2023-08-20T00:44:56;15.35;;;8.35;;
23046;SDS011;11691;51.462;6.902;2023-08-20T00:47:22;11.65;;;7.80;;
23046;SDS011;11691;51.462;6.902;2023-08-20T00:49:48;12.18;;;7.93;;
23046;SDS011;11691;51.462;6.902;2023-08-20T00:52:15;13.07;;;7.70;;
23046;SDS011;11691;51.462;6.902;2023-08-20T00:54:44;10.50;;;7.63;;
23046;SDS011;11691;51.462;6.902;2023-08-20T00:57:09;10.00;;;7.95;;
23046;SDS011;11691;51.462;6.902;2023-08-20T00:59:36;13.38;;;8.63;;
23046;SDS011;11691;51.462;6.902;2023-08-20T01:02:02;13.77;;;8.27;;
23046;SDS011;11691;51.462;6.902;2023-08-20T01:04:29;12.60;;;8.32;;
23046;SDS011;11691;51.462;6.902;2023-08-20T01:09:49;11.57;;;7.55;;
23046;SDS011;11691;51.462;6.902;2023-08-20T01:12:22;10.15;;;7.10;;
23046;SDS011;11691;51.462;6.902;2023-08-20T01:14:48;12.60;;;7.97;;
23046;SDS011;11691;51.462;6.902;2023-08-20T01:17:14;10.73;;;7.35;;
23046;SDS011;11691;51.462;6.902;2023-08-20T01:19:40;10.82;;;7.32;;
23046;SDS011;11691;51.462;6.902;2023-08-20T01:30:12;11.07;;;7.78;;
23046;SDS011;11691;51.462;6.902;2023-08-20T01:32:38;11.40;;;8.55;;
23046;SDS011;11691;51.462;6.902;2023-08-20T01:35:07;16.08;;;8.88;;
23046;SDS011;11691;51.462;6.902;2023-08-20T01:37:41;11.43;;;8.27;;
23046;SDS011;11691;51.462;6.902;2023-08-20T01:40:07;10.02;;;7.30;;
23046;SDS011;11691;51.462;6.902;2023-08-20T01:42:35;12.13;;;8.30;;
23046;SDS011;11691;51.462;6.902;2023-08-20T01:45:01;14.07;;;8.73;;
23046;SDS011;11691;51.462;6.902;2023-08-20T01:47:27;13.98;;;9.38;;
23046;SDS011;11691;51.462;6.902;2023-08-20T01:49:53;11.90;;;8.25;;
23046;SDS011;11691;51.462;6.902;2023-08-20T01:52:19;13.10;;;8.90;;
23046;SDS011;11691;51.462;6.902;2023-08-20T01:54:45;12.25;;;8.95;;
23046;SDS011;11691;51.462;6.902;2023-08-20T01:57:11;14.70;;;9.35;;
23046;SDS011;11691;51.462;6.902;2023-08-20T01:59:37;13.95;;;8.90;;
23046;SDS011;11691;51.462;6.902;2023-08-20T02:02:03;13.93;;;9.15;;
23046;SDS011;11691;51.462;6.902;2023-08-20T02:04:29;14.88;;;9.35;;
23046;SDS011;11691;51.462;6.902;2023-08-20T02:06:56;14.25;;;9.98;;
23046;SDS011;11691;51.462;6.902;2023-08-20T02:09:22;15.43;;;10.30;;
23046;SDS011;11691;51.462;6.902;2023-08-20T02:11:48;16.23;;;10.25;;
23046;SDS011;11691;51.462;6.902;2023-08-20T02:14:14;15.43;;;11.00;;
23046;SDS011;11691;51.462;6.902;2023-08-20T02:16:40;12.60;;;8.88;;
23046;SDS011;11691;51.462;6.902;2023-08-20T02:19:06;13.38;;;9.70;;
23046;SDS011;11691;51.462;6.902;2023-08-20T02:21:32;16.02;;;10.35;;
23046;SDS011;11691;51.462;6.902;2023-08-20T02:23:58;13.00;;;8.68;;
23046;SDS011;11691;51.462;6.902;2023-08-20T02:26:24;17.65;;;9.70;;
23046;SDS011;11691;51.462;6.902;2023-08-20T02:28:50;13.13;;;9.77;;
23046;SDS011;11691;51.462;6.902;2023-08-20T02:31:16;12.38;;;8.60;;
23046;SDS011;11691;51.462;6.902;2023-08-20T02:33:42;16.00;;;8.77;;
23046;SDS011;11691;51.462;6.902;2023-08-20T02:36:08;12.45;;;8.43;;
23046;SDS011;11691;51.462;6.902;2023-08-20T02:38:34;12.27;;;8.02;;
23046;SDS011;11691;51.462;6.902;2023-08-20T02:41:00;13.98;;;8.90;;
23046;SDS011;11691;51.462;6.902;2023-08-20T02:43:28;12.95;;;8.82;;
23046;SDS011;11691;51.462;6.902;2023-08-20T02:45:54;12.77;;;9.40;;
23046;SDS011;11691;51.462;6.902;2023-08-20T02:48:20;14.75;;;8.68;;
23046;SDS011;11691;51.462;6.902;2023-08-20T02:50:46;12.13;;;8.25;;
23046;SDS011;11691;51.462;6.902;2023-08-20T02:53:12;12.70;;;9.00;;
23046;SDS011;11691;51.462;6.902;2023-08-20T02:55:38;15.23;;;8.82;;
23046;SDS011;11691;51.462;6.902;2023-08-20T02:58:04;14.90;;;9.52;;
23046;SDS011;11691;51.462;6.902;2023-08-20T03:00:32;15.27;;;9.60;;
23046;SDS011;11691;51.462;6.902;2023-08-20T03:02:58;16.25;;;9.23;;
23046;SDS011;11691;51.462;6.902;2023-08-20T03:05:25;11.00;;;8.45;;
23046;SDS011;11691;51.462;6.902;2023-08-20T03:07:51;13.48;;;9.05;;
23046;SDS011;11691;51.462;6.902;2023-08-20T03:10:17;16.95;;;9.63;;
23046;SDS011;11691;51.462;6.902;2023-08-20T03:12:43;15.13;;;10.32;;
23046;SDS011;11691;51.462;6.902;2023-08-20T03:15:09;13.10;;;10.50;;
23046;SDS011;11691;51.462;6.902;2023-08-20T03:17:35;13.77;;;10.50;;
23046;SDS011;11691;51.462;6.902;2023-08-20T03:20:02;14.93;;;10.70;;
23046;SDS011;11691;51.462;6.902;2023-08-20T03:22:31;17.77;;;10.43;;
23046;SDS011;11691;51.462;6.902;2023-08-20T03:24:57;13.98;;;10.65;;
23046;SDS011;11691;51.462;6.902;2023-08-20T03:27:23;16.30;;;11.00;;
23046;SDS011;11691;51.462;6.902;2023-08-20T03:29:49;14.73;;;10.35;;
23046;SDS011;11691;51.462;6.902;2023-08-20T03:32:15;11.40;;;9.15;;
23046;SDS011;11691;51.462;6.902;2023-08-20T03:34:41;12.88;;;9.15;;
23046;SDS011;11691;51.462;6.902;2023-08-20T03:37:07;13.52;;;9.77;;
23046;SDS011;11691;51.462;6.902;2023-08-20T03:39:33;12.48;;;9.27;;
23046;SDS011;11691;51.462;6.902;2023-08-20T03:41:59;14.82;;;9.48;;
23046;SDS011;11691;51.462;6.902;2023-08-20T03:44:25;15.75;;;9.93;;
23046;SDS011;11691;51.462;6.902;2023-08-20T03:46:51;14.80;;;9.70;;
23046;SDS011;11691;51.462;6.902;2023-08-20T03:49:17;13.65;;;9.50;;
23046;SDS011;11691;51.462;6.902;2023-08-20T03:51:43;13.88;;;10.50;;
23046;SDS011;11691;51.462;6.902;2023-08-20T03:54:09;14.07;;;9.88;;
23046;SDS011;11691;51.462;6.902;2023-08-20T03:56:35;13.88;;;10.48;;
23046;SDS011;11691;51.462;6.902;2023-08-20T03:59:01;19.48;;;10.40;;
23046;SDS011;11691;51.462;6.902;2023-08-20T04:01:27;12.68;;;9.88;;
23046;SDS011;11691;51.462;6.902;2023-08-20T04:03:53;15.52;;;11.38;;
23046;SDS011;11691;51.462;6.902;2023-08-20T04:06:19;13.68;;;10.35;;
23046;SDS011;11691;51.462;6.902;2023-08-20T04:08:45;17.13;;;11.80;;
23046;SDS011;11691;51.462;6.902;2023-08-20T04:11:11;15.00;;;10.80;;
23046;SDS011;11691;51.462;6.902;2023-08-20T04:13:37;16.40;;;10.68;;
23046;SDS011;11691;51.462;6.902;2023-08-20T04:16:04;18.23;;;13.40;;
23046;SDS011;11691;51.462;6.902;2023-08-20T04:18:30;22.27;;;13.32;;
23046;SDS011;11691;51.462;6.902;2023-08-20T04:20:56;19.75;;;13.32;;
23046;SDS011;11691;51.462;6.902;2023-08-20T04:23:22;19.98;;;13.32;;
23046;SDS011;11691;51.462;6.902;2023-08-20T04:25:48;17.73;;;13.02;;
23046;SDS011;11691;51.462;6.902;2023-08-20T04:28:14;24.75;;;14.80;;
23046;SDS011;11691;51.462;6.902;2023-08-20T04:30:40;21.42;;;14.73;;
23046;SDS011;11691;51.462;6.902;2023-08-20T04:33:06;19.63;;;13.15;;
23046;SDS011;11691;51.462;6.902;2023-08-20T04:35:33;17.55;;;13.45;;
23046;SDS011;11691;51.462;6.902;2023-08-20T04:37:59;21.38;;;14.60;;
23046;SDS011;11691;51.462;6.902;2023-08-20T04:40:25;20.73;;;13.65;;
23046;SDS011;11691;51.462;6.902;2023-08-20T04:42:51;21.00;;;14.80;;
23046;SDS011;11691;51.462;6.902;2023-08-20T04:45:17;18.35;;;13.93;;
23046;SDS011;11691;51.462;6.902;2023-08-20T04:47:46;18.33;;;13.15;;
23046;SDS011;11691;51.462;6.902;2023-08-20T04:50:12;18.30;;;12.35;;
23046;SDS011;11691;51.462;6.902;2023-08-20T04:52:38;23.13;;;13.95;;
23046;SDS011;11691;51.462;6.902;2023-08-20T04:55:05;22.67;;;13.57;;
23046;SDS011;11691;51.462;6.902;2023-08-20T04:57:34;21.40;;;14.20;;
23046;SDS011;11691;51.462;6.902;2023-08-20T05:00:00;16.25;;;13.02;;
23046;SDS011;11691;51.462;6.902;2023-08-20T05:02:27;21.13;;;13.75;;
23046;SDS011;11691;51.462;6.902;2023-08-20T05:04:53;16.48;;;12.50;;
23046;SDS011;11691;51.462;6.902;2023-08-20T05:07:19;22.02;;;13.63;;
23046;SDS011;11691;51.462;6.902;2023-08-20T05:09:45;20.00;;;13.50;;
23046;SDS011;11691;51.462;6.902;2023-08-20T05:12:11;22.48;;;16.45;;
23046;SDS011;11691;51.462;6.902;2023-08-20T05:14:37;20.77;;;14.77;;
23046;SDS011;11691;51.462;6.902;2023-08-20T05:17:03;19.48;;;14.63;;
23046;SDS011;11691;51.462;6.902;2023-08-20T05:19:29;25.95;;;17.60;;
23046;SDS011;11691;51.462;6.902;2023-08-20T05:21:55;21.25;;;15.43;;
23046;SDS011;11691;51.462;6.902;2023-08-20T05:24:23;26.13;;;16.65;;
23046;SDS011;11691;51.462;6.902;2023-08-20T05:27:03;26.95;;;17.38;;
23046;SDS011;11691;51.462;6.902;2023-08-20T05:29:36;22.65;;;16.98;;
23046;SDS011;11691;51.462;6.902;2023-08-20T05:32:02;31.70;;;18.92;;
23046;SDS011;11691;51.462;6.902;2023-08-20T05:34:28;29.10;;;20.52;;
23046;SDS011;11691;51.462;6.902;2023-08-20T05:36:54;35.78;;;21.38;;
23046;SDS011;11691;51.462;6.902;2023-08-20T05:39:20;30.95;;;21.27;;
23046;SDS011;11691;51.462;6.902;2023-08-20T05:41:48;31.60;;;20.52;;
23046;SDS011;11691;51.462;6.902;2023-08-20T05:44:14;30.77;;;21.63;;
23046;SDS011;11691;51.462;6.902;2023-08-20T05:46:40;27.35;;;19.23;;
23046;SDS011;11691;51.462;6.902;2023-08-20T05:49:06;29.77;;;20.05;;
23046;SDS011;11691;51.462;6.902;2023-08-20T05:51:32;27.60;;;18.08;;
23046;SDS011;11691;51.462;6.902;2023-08-20T05:53:58;28.60;;;18.98;;
23046;SDS011;11691;51.462;6.902;2023-08-20T05:56:24;25.58;;;17.88;;
23046;SDS011;11691;51.462;6.902;2023-08-20T05:58:50;32.75;;;20.45;;
23046;SDS011;11691;51.462;6.902;2023-08-20T06:01:16;25.60;;;18.80;;
23046;SDS011;11691;51.462;6.902;2023-08-20T06:03:42;24.73;;;17.55;;
23046;SDS011;11691;51.462;6.902;2023-08-20T06:06:08;22.55;;;17.65;;
23046;SDS011;11691;51.462;6.902;2023-08-20T06:08:34;28.35;;;18.88;;
23046;SDS011;11691;51.462;6.902;2023-08-20T06:11:00;24.58;;;17.45;;
23046;SDS011;11691;51.462;6.902;2023-08-20T06:13:26;32.10;;;18.75;;
23046;SDS011;11691;51.462;6.902;2023-08-20T06:15:52;23.17;;;16.77;;
23046;SDS011;11691;51.462;6.902;2023-08-20T06:18:18;23.45;;;17.58;;
23046;SDS011;11691;51.462;6.902;2023-08-20T06:20:44;26.02;;;17.27;;
23046;SDS011;11691;51.462;6.902;2023-08-20T06:23:10;24.58;;;17.33;;
23046;SDS011;11691;51.462;6.902;2023-08-20T06:25:37;23.40;;;15.70;;
23046;SDS011;11691;51.462;6.902;2023-08-20T06:28:03;23.42;;;16.80;;
23046;SDS011;11691;51.462;6.902;2023-08-20T06:30:29;23.38;;;16.80;;
23046;SDS011;11691;51.462;6.902;2023-08-20T06:32:55;28.98;;;20.45;;
23046;SDS011;11691;51.462;6.902;2023-08-20T06:35:20;25.33;;;17.75;;
23046;SDS011;11691;51.462;6.902;2023-08-20T06:37:46;19.38;;;14.77;;
23046;SDS011;11691;51.462;6.902;2023-08-20T06:40:12;21.90;;;15.25;;
23046;SDS011;11691;51.462;6.902;2023-08-20T06:42:39;24.45;;;17.45;;
23046;SDS011;11691;51.462;6.902;2023-08-20T06:45:05;26.42;;;18.13;;
23046;SDS011;11691;51.462;6.902;2023-08-20T06:47:31;24.85;;;17.88;;
23046;SDS011;11691;51.462;6.902;2023-08-20T06:49:57;25.02;;;17.30;;
23046;SDS011;11691;51.462;6.902;2023-08-20T06:52:23;21.70;;;14.43;;
23046;SDS011;11691;51.462;6.902;2023-08-20T06:54:49;26.70;;;18.25;;
23046;SDS011;11691;51.462;6.902;2023-08-20T06:57:15;22.95;;;16.45;;
23046;SDS011;11691;51.462;6.902;2023-08-20T06:59:41;21.83;;;14.70;;
23046;SDS011;11691;51.462;6.902;2023-08-20T07:02:08;22.42;;;16.45;;
23046;SDS011;11691;51.462;6.902;2023-08-20T07:04:35;20.67;;;13.95;;
23046;SDS011;11691;51.462;6.902;2023-08-20T07:07:01;21.27;;;14.73;;
23046;SDS011;11691;51.462;6.902;2023-08-20T07:09:29;18.65;;;15.00;;
23046;SDS011;11691;51.462;6.902;2023-08-20T07:11:55;23.42;;;15.38;;
23046;SDS011;11691;51.462;6.902;2023-08-20T07:14:21;19.52;;;14.00;;
23046;SDS011;11691;51.462;6.902;2023-08-20T07:16:47;21.90;;;16.00;;
23046;SDS011;11691;51.462;6.902;2023-08-20T07:19:13;21.52;;;15.15;;
23046;SDS011;11691;51.462;6.902;2023-08-20T07:21:39;19.10;;;13.90;;
23046;SDS011;11691;51.462;6.902;2023-08-20T07:24:05;16.73;;;12.35;;
23046;SDS011;11691;51.462;6.902;2023-08-20T07:26:31;18.77;;;13.77;;
23046;SDS011;11691;51.462;6.902;2023-08-20T07:28:57;18.70;;;12.88;;
23046;SDS011;11691;51.462;6.902;2023-08-20T07:33:50;14.75;;;11.10;;
23046;SDS011;11691;51.462;6.902;2023-08-20T07:36:17;15.88;;;11.57;;
23046;SDS011;11691;51.462;6.902;2023-08-20T07:38:43;20.85;;;13.95;;
23046;SDS011;11691;51.462;6.902;2023-08-20T07:41:09;15.25;;;10.80;;
23046;SDS011;11691;51.462;6.902;2023-08-20T07:43:38;14.43;;;11.65;;
23046;SDS011;11691;51.462;6.902;2023-08-20T07:46:05;17.52;;;11.25;;
23046;SDS011;11691;51.462;6.902;2023-08-20T07:48:31;16.70;;;11.35;;
23046;SDS011;11691;51.462;6.902;2023-08-20T07:50:57;15.68;;;11.10;;
23046;SDS011;11691;51.462;6.902;2023-08-20T07:53:23;14.20;;;10.80;;
23046;SDS011;11691;51.462;6.902;2023-08-20T07:55:49;15.98;;;11.32;;
23046;SDS011;11691;51.462;6.902;2023-08-20T07:58:15;14.57;;;10.02;;
23046;SDS011;11691;51.462;6.902;2023-08-20T08:00:41;16.88;;;10.52;;
23046;SDS011;11691;51.462;6.902;2023-08-20T08:03:07;12.75;;;9.70;;
23046;SDS011;11691;51.462;6.902;2023-08-20T08:05:34;15.43;;;10.68;;
23046;SDS011;11691;51.462;6.902;2023-08-20T08:08:00;11.10;;;8.77;;
23046;SDS011;11691;51.462;6.902;2023-08-20T08:10:26;12.43;;;9.35;;
23046;SDS011;11691;51.462;6.902;2023-08-20T08:12:52;13.52;;;9.25;;
23046;SDS011;11691;51.462;6.902;2023-08-20T08:15:17;12.65;;;8.90;;
23046;SDS011;11691;51.462;6.902;2023-08-20T08:17:43;13.00;;;9.00;;
23046;SDS011;11691;51.462;6.902;2023-08-20T08:20:09;14.05;;;9.90;;
23046;SDS011;11691;51.462;6.902;2023-08-20T08:22:35;10.35;;;8.23;;
23046;SDS011;11691;51.462;6.902;2023-08-20T08:25:01;11.38;;;7.30;;
23046;SDS011;11691;51.462;6.902;2023-08-20T08:27:27;10.38;;;8.00;;
23046;SDS011;11691;51.462;6.902;2023-08-20T08:29:53;9.45;;;7.00;;
23046;SDS011;11691;51.462;6.902;2023-08-20T08:32:19;8.70;;;6.97;;
23046;SDS011;11691;51.462;6.902;2023-08-20T08:34:45;7.03;;;6.13;;
23046;SDS011;11691;51.462;6.902;2023-08-20T08:37:11;9.95;;;7.22;;
23046;SDS011;11691;51.462;6.902;2023-08-20T08:39:37;10.55;;;6.80;;
23046;SDS011;11691;51.462;6.902;2023-08-20T08:42:04;7.25;;;5.63;;
23046;SDS011;11691;51.462;6.902;2023-08-20T08:44:32;8.52;;;5.82;;
23046;SDS011;11691;51.462;6.902;2023-08-20T08:46:58;10.15;;;6.40;;
23046;SDS011;11691;51.462;6.902;2023-08-20T08:49:24;9.00;;;7.25;;
23046;SDS011;11691;51.462;6.902;2023-08-20T08:51:51;8.65;;;5.72;;
23046;SDS011;11691;51.462;6.902;2023-08-20T08:54:21;8.20;;;6.03;;
23046;SDS011;11691;51.462;6.902;2023-08-20T08:56:47;6.93;;;5.63;;
23046;SDS011;11691;51.462;6.902;2023-08-20T08:59:14;7.65;;;5.05;;
23046;SDS011;11691;51.462;6.902;2023-08-20T09:01:40;9.57;;;6.22;;
23046;SDS011;11691;51.462;6.902;2023-08-20T09:04:06;8.25;;;5.25;;
23046;SDS011;11691;51.462;6.902;2023-08-20T09:06:45;7.47;;;4.70;;
23046;SDS011;11691;51.462;6.902;2023-08-20T09:09:12;6.57;;;5.32;;
23046;SDS011;11691;51.462;6.902;2023-08-20T09:11:38;5.20;;;4.70;;
23046;SDS011;11691;51.462;6.902;2023-08-20T09:14:04;5.72;;;4.28;;
23046;SDS011;11691;51.462;6.902;2023-08-20T09:16:30;5.57;;;4.72;;
23046;SDS011;11691;51.462;6.902;2023-08-20T09:18:58;5.25;;;4.28;;
23046;SDS011;11691;51.462;6.902;2023-08-20T09:21:28;5.35;;;3.65;;
23046;SDS011;11691;51.462;6.902;2023-08-20T09:23:54;4.00;;;2.85;;
23046;SDS011;11691;51.462;6.902;2023-08-20T09:26:21;6.88;;;3.70;;
23046;SDS011;11691;51.462;6.902;2023-08-20T09:28:47;5.50;;;3.70;;
23046;SDS011;11691;51.462;6.902;2023-08-20T09:31:13;5.20;;;4.03;;
23046;SDS011;11691;51.462;6.902;2023-08-20T09:33:49;6.30;;;5.03;;
23046;SDS011;11691;51.462;6.902;2023-08-20T09:36:15;6.00;;;5.15;;
23046;SDS011;11691;51.462;6.902;2023-08-20T09:38:41;9.13;;;5.82;;
23046;SDS011;11691;51.462;6.902;2023-08-20T09:41:08;8.70;;;6.60;;
23046;SDS011;11691;51.462;6.902;2023-08-20T09:43:35;8.85;;;6.22;;
23046;SDS011;11691;51.462;6.902;2023-08-20T09:46:03;11.50;;;7.20;;
23046;SDS011;11691;51.462;6.902;2023-08-20T09:48:33;11.15;;;9.55;;
23046;SDS011;11691;51.462;6.902;2023-08-20T09:51:01;14.25;;;10.57;;
23046;SDS011;11691;51.462;6.902;2023-08-20T09:53:35;13.20;;;9.07;;
23046;SDS011;11691;51.462;6.902;2023-08-20T09:56:10;12.55;;;10.15;;
23046;SDS011;11691;51.462;6.902;2023-08-20T09:58:45;12.38;;;9.77;;
23046;SDS011;11691;51.462;6.902;2023-08-20T10:01:13;25.95;;;10.45;;
23046;SDS011;11691;51.462;6.902;2023-08-20T10:03:40;13.65;;;9.32;;
23046;SDS011;11691;51.462;6.902;2023-08-20T10:06:08;13.35;;;8.57;;
23046;SDS011;11691;51.462;6.902;2023-08-20T10:08:34;13.70;;;9.95;;
23046;SDS011;11691;51.462;6.902;2023-08-20T10:11:00;14.25;;;10.13;;
23046;SDS011;11691;51.462;6.902;2023-08-20T10:13:26;14.63;;;10.93;;
23046;SDS011;11691;51.462;6.902;2023-08-20T10:15:53;20.05;;;12.70;;
23046;SDS011;11691;51.462;6.902;2023-08-20T10:18:20;15.35;;;11.23;;
23046;SDS011;11691;51.462;6.902;2023-08-20T10:20:47;16.92;;;13.07;;
23046;SDS011;11691;51.462;6.902;2023-08-20T10:23:15;18.83;;;12.50;;
23046;SDS011;11691;51.462;6.902;2023-08-20T10:25:51;17.02;;;12.63;;
23046;SDS011;11691;51.462;6.902;2023-08-20T10:31:03;15.98;;;11.25;;
23046;SDS011;11691;51.462;6.902;2023-08-20T10:33:34;14.32;;;9.43;;
23046;SDS011;11691;51.462;6.902;2023-08-20T10:36:07;11.75;;;10.00;;
23046;SDS011;11691;51.462;6.902;2023-08-20T10:38:37;13.93;;;10.00;;
23046;SDS011;11691;51.462;6.902;2023-08-20T10:41:07;10.63;;;8.38;;
23046;SDS011;11691;51.462;6.902;2023-08-20T10:43:34;10.52;;;8.85;;
23046;SDS011;11691;51.462;6.902;2023-08-20T10:46:07;10.07;;;8.73;;
23046;SDS011;11691;51.462;6.902;2023-08-20T10:48:56;11.57;;;8.32;;
23046;SDS011;11691;51.462;6.902;2023-08-20T10:59:16;10.50;;;8.55;;
23046;SDS011;11691;51.462;6.902;2023-08-20T11:01:46;9.75;;;8.75;;
23046;SDS011;11691;51.462;6.902;2023-08-20T11:04:14;8.50;;;7.60;;
23046;SDS011;11691;51.462;6.902;2023-08-20T11:06:40;8.15;;;7.35;;
23046;SDS011;11691;51.462;6.902;2023-08-20T11:09:06;7.95;;;5.85;;
23046;SDS011;11691;51.462;6.902;2023-08-20T11:11:32;7.35;;;4.93;;
23046;SDS011;11691;51.462;6.902;2023-08-20T11:14:05;8.13;;;4.70;;
23046;SDS011;11691;51.462;6.902;2023-08-20T11:16:32;6.53;;;4.60;;
23046;SDS011;11691;51.462;6.902;2023-08-20T11:18:58;8.38;;;5.28;;
23046;SDS011;11691;51.462;6.902;2023-08-20T11:21:24;10.55;;;6.65;;
23046;SDS011;11691;51.462;6.902;2023-08-20T11:23:50;10.07;;;7.20;;
23046;SDS011;11691;51.462;6.902;2023-08-20T11:26:17;8.55;;;6.55;;
23046;SDS011;11691;51.462;6.902;2023-08-20T11:28:46;8.77;;;6.07;;
23046;SDS011;11691;51.462;6.902;2023-08-20T11:31:12;7.32;;;6.28;;
23046;SDS011;11691;51.462;6.902;2023-08-20T11:33:38;8.65;;;5.60;;
23046;SDS011;11691;51.462;6.902;2023-08-20T11:36:05;8.45;;;5.72;;
23046;SDS011;11691;51.462;6.902;2023-08-20T11:38:31;7.03;;;5.10;;
23046;SDS011;11691;51.462;6.902;2023-08-20T11:40:57;8.85;;;5.57;;
23046;SDS011;11691;51.462;6.902;2023-08-20T11:43:27;7.13;;;5.18;;
23046;SDS011;11691;51.462;6.902;2023-08-20T11:45:53;8.50;;;4.70;;
23046;SDS011;11691;51.462;6.902;2023-08-20T11:48:20;7.10;;;5.03;;
23046;SDS011;11691;51.462;6.902;2023-08-20T11:50:51;6.47;;;4.20;;
23046;SDS011;11691;51.462;6.902;2023-08-20T11:53:21;7.30;;;4.43;;
23046;SDS011;11691;51.462;6.902;2023-08-20T11:55:50;7.88;;;4.85;;
23046;SDS011;11691;51.462;6.902;2023-08-20T11:58:16;7.22;;;5.13;;
23046;SDS011;11691;51.462;6.902;2023-08-20T12:00:48;6.97;;;5.15;;
23046;SDS011;11691;51.462;6.902;2023-08-20T12:03:14;6.20;;;4.55;;
23046;SDS011;11691;51.462;6.902;2023-08-20T12:05:41;5.10;;;4.43;;
23046;SDS011;11691;51.462;6.902;2023-08-20T12:08:07;5.20;;;4.50;;
23046;SDS011;11691;51.462;6.902;2023-08-20T12:10:33;8.10;;;3.65;;
23046;SDS011;11691;51.462;6.902;2023-08-20T12:12:59;7.00;;;3.72;;
23046;SDS011;11691;51.462;6.902;2023-08-20T12:15:25;5.53;;;3.78;;
23046;SDS011;11691;51.462;6.902;2023-08-20T12:17:57;5.80;;;3.42;;
23046;SDS011;11691;51.462;6.902;2023-08-20T12:20:32;6.05;;;3.92;;
23046;SDS011;11691;51.462;6.902;2023-08-20T12:22:59;6.05;;;4.18;;
23046;SDS011;11691;51.462;6.902;2023-08-20T12:25:32;5.57;;;3.78;;
23046;SDS011;11691;51.462;6.902;2023-08-20T12:28:01;8.77;;;4.05;;
23046;SDS011;11691;51.462;6.902;2023-08-20T12:30:28;7.13;;;4.05;;
23046;SDS011;11691;51.462;6.902;2023-08-20T12:32:54;6.03;;;3.75;;
23046;SDS011;11691;51.462;6.902;2023-08-20T12:35:20;8.30;;;4.70;;
23046;SDS011;11691;51.462;6.902;2023-08-20T12:37:45;9.32;;;4.30;;
23046;SDS011;11691;51.462;6.902;2023-08-20T12:40:11;10.57;;;3.75;;
23046;SDS011;11691;51.462;6.902;2023-08-20T12:42:37;6.13;;;3.30;;
23046;SDS011;11691;51.462;6.902;2023-08-20T12:45:06;7.70;;;3.50;;
23046;SDS011;11691;51.462;6.902;2023-08-20T12:47:33;5.95;;;3.08;;
23046;SDS011;11691;51.462;6.902;2023-08-20T12:49:59;7.82;;;3.65;;
23046;SDS011;11691;51.462;6.902;2023-08-20T12:52:25;5.43;;;2.83;;
23046;SDS011;11691;51.462;6.902;2023-08-20T12:54:51;4.47;;;2.40;;
23046;SDS011;11691;51.462;6.902;2023-08-20T12:57:16;3.45;;;2.00;;
23046;SDS011;11691;51.462;6.902;2023-08-20T12:59:42;5.82;;;2.42;;
23046;SDS011;11691;51.462;6.902;2023-08-20T13:02:08;3.80;;;2.40;;
23046;SDS011;11691;51.462;6.902;2023-08-20T13:04:35;7.35;;;3.08;;
23046;SDS011;11691;51.462;6.902;2023-08-20T13:07:01;6.93;;;3.38;;
23046;SDS011;11691;51.462;6.902;2023-08-20T13:09:27;5.22;;;2.92;;
23046;SDS011;11691;51.462;6.902;2023-08-20T13:11:53;5.97;;;2.83;;
23046;SDS011;11691;51.462;6.902;2023-08-20T13:14:20;4.45;;;2.95;;
23046;SDS011;11691;51.462;6.902;2023-08-20T13:16:46;6.43;;;3.95;;
23046;SDS011;11691;51.462;6.902;2023-08-20T13:19:12;6.68;;;3.20;;
23046;SDS011;11691;51.462;6.902;2023-08-20T13:21:38;5.15;;;2.70;;
23046;SDS011;11691;51.462;6.902;2023-08-20T13:24:04;8.18;;;3.45;;
23046;SDS011;11691;51.462;6.902;2023-08-20T13:26:31;6.22;;;2.63;;
23046;SDS011;11691;51.462;6.902;2023-08-20T13:28:56;5.20;;;3.03;;
23046;SDS011;11691;51.462;6.902;2023-08-20T13:31:22;6.07;;;2.72;;
23046;SDS011;11691;51.462;6.902;2023-08-20T13:33:48;5.43;;;2.78;;
23046;SDS011;11691;51.462;6.902;2023-08-20T13:36:14;5.13;;;2.42;;
23046;SDS011;11691;51.462;6.902;2023-08-20T13:38:41;4.40;;;2.20;;
23046;SDS011;11691;51.462;6.902;2023-08-20T13:41:07;5.57;;;2.85;;
23046;SDS011;11691;51.462;6.902;2023-08-20T13:43:34;3.30;;;2.70;;
23046;SDS011;11691;51.462;6.902;2023-08-20T13:46:00;6.93;;;2.60;;
23046;SDS011;11691;51.462;6.902;2023-08-20T13:48:26;7.45;;;2.70;;
23046;SDS011;11691;51.462;6.902;2023-08-20T13:50:52;5.72;;;2.45;;
23046;SDS011;11691;51.462;6.902;2023-08-20T13:53:18;3.70;;;2.20;;
23046;SDS011;11691;51.462;6.902;2023-08-20T13:55:45;4.07;;;1.85;;
23046;SDS011;11691;51.462;6.902;2023-08-20T13:58:11;6.30;;;2.40;;
23046;SDS011;11691;51.462;6.902;2023-08-20T14:00:37;4.82;;;2.50;;
23046;SDS011;11691;51.462;6.902;2023-08-20T14:03:03;4.10;;;2.10;;
23046;SDS011;11691;51.462;6.902;2023-08-20T14:05:29;5.47;;;2.33;;
23046;SDS011;11691;51.462;6.902;2023-08-20T14:07:55;4.25;;;2.47;;
23046;SDS011;11691;51.462;6.902;2023-08-20T14:10:21;4.47;;;2.85;;
23046;SDS011;11691;51.462;6.902;2023-08-20T14:12:47;5.28;;;3.15;;
23046;SDS011;11691;51.462;6.902;2023-08-20T14:15:13;6.25;;;2.90;;
23046;SDS011;11691;51.462;6.902;2023-08-20T14:17:39;5.78;;;2.45;;
23046;SDS011;11691;51.462;6.902;2023-08-20T14:20:06;5.63;;;2.30;;
23046;SDS011;11691;51.462;6.902;2023-08-20T14:22:33;5.88;;;2.35;;
23046;SDS011;11691;51.462;6.902;2023-08-20T14:24:58;4.93;;;2.55;;
23046;SDS011;11691;51.462;6.902;2023-08-20T14:27:24;6.55;;;2.47;;
23046;SDS011;11691;51.462;6.902;2023-08-20T14:29:50;6.07;;;2.45;;
23046;SDS011;11691;51.462;6.902;2023-08-20T14:32:16;5.57;;;2.50;;
23046;SDS011;11691;51.462;6.902;2023-08-20T14:34:42;4.90;;;2.20;;
23046;SDS011;11691;51.462;6.902;2023-08-20T14:37:08;3.92;;;2.20;;
23046;SDS011;11691;51.462;6.902;2023-08-20T14:39:35;5.30;;;2.45;;
23046;SDS011;11691;51.462;6.902;2023-08-20T14:42:01;6.82;;;2.47;;
23046;SDS011;11691;51.462;6.902;2023-08-20T14:44:27;6.90;;;2.60;;
23046;SDS011;11691;51.462;6.902;2023-08-20T14:46:53;6.85;;;2.13;;
23046;SDS011;11691;51.462;6.902;2023-08-20T14:49:19;5.32;;;2.03;;
23046;SDS011;11691;51.462;6.902;2023-08-20T14:51:45;3.95;;;2.00;;
23046;SDS011;11691;51.462;6.902;2023-08-20T14:54:11;6.88;;;2.40;;